sensor_id;sensor_type;location;lat;lon;timestamp;pressure;altitude;pressure_sealevel;temperature
7882;BMP180;3986;41.884;23.466;2022-12-29T00:00:07;92829.00;;;3.40
7882;BMP180;3986;41.884;23.466;2022-12-29T00:02:34;92830.00;;;3.20
7882;BMP180;3986;41.884;23.466;2022-12-29T00:05:01;92824.00;;;3.30
7882;BMP180;3986;41.884;23.466;2022-12-29T00:07:28;92823.00;;;3.30
7882;BMP180;3986;41.884;23.466;2022-12-29T00:09:55;92830.00;;;3.30
7882;BMP180;3986;41.884;23.466;2022-12-29T00:12:22;92843.00;;;3.40
7882;BMP180;3986;41.884;23.466;2022-12-29T00:14:50;92841.00;;;3.10
7882;BMP180;3986;41.884;23.466;2022-12-29T00:17:34;92829.00;;;3.10
7882;BMP180;3986;41.884;23.466;2022-12-29T00:20:01;92840.00;;;3.10
7882;BMP180;3986;41.884;23.466;2022-12-29T00:22:44;92841.00;;;3.30
7882;BMP180;3986;41.884;23.466;2022-12-29T00:25:29;92837.00;;;3.20
7882;BMP180;3986;41.884;23.466;2022-12-29T00:28:13;92834.00;;;3.10
7882;BMP180;3986;41.884;23.466;2022-12-29T00:31:00;92827.00;;;2.90
7882;BMP180;3986;41.884;23.466;2022-12-29T00:33:44;92824.00;;;2.90
7882;BMP180;3986;41.884;23.466;2022-12-29T00:36:31;92857.00;;;2.90
7882;BMP180;3986;41.884;23.466;2022-12-29T00:39:07;92836.00;;;3.00
7882;BMP180;3986;41.884;23.466;2022-12-29T00:41:54;92847.00;;;2.80
7882;BMP180;3986;41.884;23.466;2022-12-29T00:44:38;92849.00;;;2.60
7882;BMP180;3986;41.884;23.466;2022-12-29T00:47:06;92849.00;;;2.60
7882;BMP180;3986;41.884;23.466;2022-12-29T00:49:33;92845.00;;;2.60
7882;BMP180;3986;41.884;23.466;2022-12-29T00:52:01;92847.00;;;2.10
7882;BMP180;3986;41.884;23.466;2022-12-29T00:54:30;92847.00;;;2.20
7882;BMP180;3986;41.884;23.466;2022-12-29T00:56:57;92845.00;;;2.30
7882;BMP180;3986;41.884;23.466;2022-12-29T00:59:24;92721.00;;;2.40
7882;BMP180;3986;41.884;23.466;2022-12-29T01:01:52;92847.00;;;2.20
7882;BMP180;3986;41.884;23.466;2022-12-29T01:04:21;92866.00;;;2.10
7882;BMP180;3986;41.884;23.466;2022-12-29T01:06:49;92844.00;;;2.10
7882;BMP180;3986;41.884;23.466;2022-12-29T01:09:16;92840.00;;;2.00
7882;BMP180;3986;41.884;23.466;2022-12-29T01:12:01;92807.00;;;2.10
7882;BMP180;3986;41.884;23.466;2022-12-29T01:14:28;92825.00;;;2.10
7882;BMP180;3986;41.884;23.466;2022-12-29T01:16:56;92821.00;;;2.20
7882;BMP180;3986;41.884;23.466;2022-12-29T01:19:24;92807.00;;;2.20
7882;BMP180;3986;41.884;23.466;2022-12-29T01:21:51;92805.00;;;1.90
7882;BMP180;3986;41.884;23.466;2022-12-29T01:24:19;92812.00;;;1.90
7882;BMP180;3986;41.884;23.466;2022-12-29T01:26:47;92830.00;;;2.00
7882;BMP180;3986;41.884;23.466;2022-12-29T01:29:14;92809.00;;;1.90
7882;BMP180;3986;41.884;23.466;2022-12-29T01:31:41;92808.00;;;2.00
7882;BMP180;3986;41.884;23.466;2022-12-29T01:34:08;92809.00;;;2.00
7882;BMP180;3986;41.884;23.466;2022-12-29T01:36:36;92811.00;;;1.80
7882;BMP180;3986;41.884;23.466;2022-12-29T01:39:03;92793.00;;;1.70
7882;BMP180;3986;41.884;23.466;2022-12-29T01:41:30;92799.00;;;1.60
7882;BMP180;3986;41.884;23.466;2022-12-29T01:43:58;92792.00;;;1.70
7882;BMP180;3986;41.884;23.466;2022-12-29T01:46:28;92793.00;;;1.60
7882;BMP180;3986;41.884;23.466;2022-12-29T01:49:02;92820.00;;;1.60
7882;BMP180;3986;41.884;23.466;2022-12-29T01:51:33;92798.00;;;1.40
7882;BMP180;3986;41.884;23.466;2022-12-29T01:54:05;92792.00;;;1.40
7882;BMP180;3986;41.884;23.466;2022-12-29T01:56:34;92790.00;;;1.20
7882;BMP180;3986;41.884;23.466;2022-12-29T01:59:04;92788.00;;;1.40
7882;BMP180;3986;41.884;23.466;2022-12-29T02:01:31;92791.00;;;1.50
7882;BMP180;3986;41.884;23.466;2022-12-29T02:03:59;92786.00;;;1.50
7882;BMP180;3986;41.884;23.466;2022-12-29T02:06:28;92782.00;;;1.30
7882;BMP180;3986;41.884;23.466;2022-12-29T02:08:56;92785.00;;;1.10
7882;BMP180;3986;41.884;23.466;2022-12-29T02:11:25;92774.00;;;1.00
7882;BMP180;3986;41.884;23.466;2022-12-29T02:13:53;92769.00;;;1.20
7882;BMP180;3986;41.884;23.466;2022-12-29T02:16:31;92773.00;;;1.10
7882;BMP180;3986;41.884;23.466;2022-12-29T02:19:20;92774.00;;;1.00
7882;BMP180;3986;41.884;23.466;2022-12-29T02:22:00;92772.00;;;1.10
7882;BMP180;3986;41.884;23.466;2022-12-29T02:25:00;92778.00;;;1.30
7882;BMP180;3986;41.884;23.466;2022-12-29T02:27:50;92766.00;;;1.30
7882;BMP180;3986;41.884;23.466;2022-12-29T02:30:42;92774.00;;;1.30
7882;BMP180;3986;41.884;23.466;2022-12-29T02:33:19;92767.00;;;1.10
7882;BMP180;3986;41.884;23.466;2022-12-29T02:35:53;92758.00;;;1.20
7882;BMP180;3986;41.884;23.466;2022-12-29T02:38:27;92770.00;;;1.10
7882;BMP180;3986;41.884;23.466;2022-12-29T02:41:04;92765.00;;;1.10
7882;BMP180;3986;41.884;23.466;2022-12-29T02:43:36;92771.00;;;1.00
7882;BMP180;3986;41.884;23.466;2022-12-29T02:46:11;92761.00;;;0.80
7882;BMP180;3986;41.884;23.466;2022-12-29T02:48:43;92740.00;;;0.80
7882;BMP180;3986;41.884;23.466;2022-12-29T02:51:15;92770.00;;;0.80
7882;BMP180;3986;41.884;23.466;2022-12-29T02:53:45;92793.00;;;0.80
7882;BMP180;3986;41.884;23.466;2022-12-29T02:56:30;92749.00;;;1.10
7882;BMP180;3986;41.884;23.466;2022-12-29T02:58:57;92762.00;;;1.10
7882;BMP180;3986;41.884;23.466;2022-12-29T03:01:32;92762.00;;;1.00
7882;BMP180;3986;41.884;23.466;2022-12-29T03:04:13;92765.00;;;0.90
7882;BMP180;3986;41.884;23.466;2022-12-29T03:06:51;92761.00;;;0.80
7882;BMP180;3986;41.884;23.466;2022-12-29T03:09:27;92757.00;;;0.40
7882;BMP180;3986;41.884;23.466;2022-12-29T03:12:06;92761.00;;;0.40
7882;BMP180;3986;41.884;23.466;2022-12-29T03:14:44;92765.00;;;0.60
7882;BMP180;3986;41.884;23.466;2022-12-29T03:17:40;92767.00;;;0.60
7882;BMP180;3986;41.884;23.466;2022-12-29T03:20:14;92761.00;;;0.70
7882;BMP180;3986;41.884;23.466;2022-12-29T03:22:45;92552.00;;;0.60
7882;BMP180;3986;41.884;23.466;2022-12-29T03:25:15;92771.00;;;0.70
7882;BMP180;3986;41.884;23.466;2022-12-29T03:27:47;92777.00;;;0.60
7882;BMP180;3986;41.884;23.466;2022-12-29T03:30:15;92770.00;;;0.60
7882;BMP180;3986;41.884;23.466;2022-12-29T03:32:46;92768.00;;;0.70
7882;BMP180;3986;41.884;23.466;2022-12-29T03:35:16;92749.00;;;0.70
7882;BMP180;3986;41.884;23.466;2022-12-29T03:37:49;92764.00;;;0.30
7882;BMP180;3986;41.884;23.466;2022-12-29T03:40:18;92764.00;;;0.50
7882;BMP180;3986;41.884;23.466;2022-12-29T03:42:45;92782.00;;;0.60
7882;BMP180;3986;41.884;23.466;2022-12-29T03:45:13;92786.00;;;0.50
7882;BMP180;3986;41.884;23.466;2022-12-29T03:47:40;92793.00;;;0.50
7882;BMP180;3986;41.884;23.466;2022-12-29T03:50:11;92794.00;;;0.60
7882;BMP180;3986;41.884;23.466;2022-12-29T03:52:37;92791.00;;;0.60
7882;BMP180;3986;41.884;23.466;2022-12-29T03:55:05;92776.00;;;0.60
7882;BMP180;3986;41.884;23.466;2022-12-29T03:57:32;92780.00;;;0.60
7882;BMP180;3986;41.884;23.466;2022-12-29T03:59:59;92775.00;;;0.50
7882;BMP180;3986;41.884;23.466;2022-12-29T04:02:25;92784.00;;;0.40
7882;BMP180;3986;41.884;23.466;2022-12-29T04:04:52;92778.00;;;0.20
7882;BMP180;3986;41.884;23.466;2022-12-29T04:07:20;92779.00;;;0.30
7882;BMP180;3986;41.884;23.466;2022-12-29T04:09:47;92774.00;;;0.30
7882;BMP180;3986;41.884;23.466;2022-12-29T04:12:14;92784.00;;;0.30
7882;BMP180;3986;41.884;23.466;2022-12-29T04:14:40;92786.00;;;0.20
7882;BMP180;3986;41.884;23.466;2022-12-29T04:17:07;92786.00;;;0.30
7882;BMP180;3986;41.884;23.466;2022-12-29T04:19:34;92780.00;;;0.30
7882;BMP180;3986;41.884;23.466;2022-12-29T04:22:01;92788.00;;;0.30
7882;BMP180;3986;41.884;23.466;2022-12-29T04:24:29;92795.00;;;0.40
7882;BMP180;3986;41.884;23.466;2022-12-29T04:26:56;92789.00;;;0.40
7882;BMP180;3986;41.884;23.466;2022-12-29T04:29:22;92798.00;;;0.30
7882;BMP180;3986;41.884;23.466;2022-12-29T04:31:49;92800.00;;;0.20
7882;BMP180;3986;41.884;23.466;2022-12-29T04:34:16;92810.00;;;0.20
7882;BMP180;3986;41.884;23.466;2022-12-29T04:36:43;92798.00;;;0.20
7882;BMP180;3986;41.884;23.466;2022-12-29T04:39:10;92805.00;;;0.10
7882;BMP180;3986;41.884;23.466;2022-12-29T04:41:38;92795.00;;;0.10
7882;BMP180;3986;41.884;23.466;2022-12-29T04:44:05;92800.00;;;0.10
7882;BMP180;3986;41.884;23.466;2022-12-29T04:46:32;92809.00;;;0.10
7882;BMP180;3986;41.884;23.466;2022-12-29T04:48:58;92820.00;;;0.10
7882;BMP180;3986;41.884;23.466;2022-12-29T04:51:29;92817.00;;;-0.10
7882;BMP180;3986;41.884;23.466;2022-12-29T04:53:56;92809.00;;;-0.30
7882;BMP180;3986;41.884;23.466;2022-12-29T04:56:23;92819.00;;;-0.80
7882;BMP180;3986;41.884;23.466;2022-12-29T04:58:51;92823.00;;;-0.60
7882;BMP180;3986;41.884;23.466;2022-12-29T05:01:18;92820.00;;;-0.30
7882;BMP180;3986;41.884;23.466;2022-12-29T05:03:45;92822.00;;;-0.30
7882;BMP180;3986;41.884;23.466;2022-12-29T05:06:11;92825.00;;;-0.40
7882;BMP180;3986;41.884;23.466;2022-12-29T05:08:38;92821.00;;;-0.30
7882;BMP180;3986;41.884;23.466;2022-12-29T05:11:05;92824.00;;;-0.30
7882;BMP180;3986;41.884;23.466;2022-12-29T05:13:32;92825.00;;;-0.50
7882;BMP180;3986;41.884;23.466;2022-12-29T05:16:00;92827.00;;;-0.40
7882;BMP180;3986;41.884;23.466;2022-12-29T05:18:26;92821.00;;;-0.40
7882;BMP180;3986;41.884;23.466;2022-12-29T05:20:53;92821.00;;;-0.30
7882;BMP180;3986;41.884;23.466;2022-12-29T05:23:20;92825.00;;;-0.20
7882;BMP180;3986;41.884;23.466;2022-12-29T05:25:47;92825.00;;;-0.10
7882;BMP180;3986;41.884;23.466;2022-12-29T05:28:14;92816.00;;;0.00
7882;BMP180;3986;41.884;23.466;2022-12-29T05:30:41;92820.00;;;0.00
7882;BMP180;3986;41.884;23.466;2022-12-29T05:33:09;92813.00;;;0.00
7882;BMP180;3986;41.884;23.466;2022-12-29T05:35:36;92820.00;;;-0.10
7882;BMP180;3986;41.884;23.466;2022-12-29T05:38:03;92822.00;;;-0.10
7882;BMP180;3986;41.884;23.466;2022-12-29T05:40:30;92824.00;;;0.00
7882;BMP180;3986;41.884;23.466;2022-12-29T05:42:57;92825.00;;;-0.10
7882;BMP180;3986;41.884;23.466;2022-12-29T05:45:23;92818.00;;;-0.10
7882;BMP180;3986;41.884;23.466;2022-12-29T05:47:50;92815.00;;;-0.30
7882;BMP180;3986;41.884;23.466;2022-12-29T05:50:18;92826.00;;;-0.10
7882;BMP180;3986;41.884;23.466;2022-12-29T05:52:45;92821.00;;;-0.10
7882;BMP180;3986;41.884;23.466;2022-12-29T05:55:12;92820.00;;;-0.20
7882;BMP180;3986;41.884;23.466;2022-12-29T05:57:39;92824.00;;;-0.30
7882;BMP180;3986;41.884;23.466;2022-12-29T06:00:07;92808.00;;;-0.30
7882;BMP180;3986;41.884;23.466;2022-12-29T06:02:34;92825.00;;;-0.40
7882;BMP180;3986;41.884;23.466;2022-12-29T06:05:01;92816.00;;;-0.20
7882;BMP180;3986;41.884;23.466;2022-12-29T06:07:29;92830.00;;;-0.10
7882;BMP180;3986;41.884;23.466;2022-12-29T06:09:56;92851.00;;;0.00
7882;BMP180;3986;41.884;23.466;2022-12-29T06:12:23;92841.00;;;0.00
7882;BMP180;3986;41.884;23.466;2022-12-29T06:14:50;92842.00;;;-0.10
7882;BMP180;3986;41.884;23.466;2022-12-29T06:17:16;92843.00;;;-0.30
7882;BMP180;3986;41.884;23.466;2022-12-29T06:19:43;92846.00;;;-0.40
7882;BMP180;3986;41.884;23.466;2022-12-29T06:22:10;92849.00;;;-0.70
7882;BMP180;3986;41.884;23.466;2022-12-29T06:24:39;92855.00;;;-0.40
7882;BMP180;3986;41.884;23.466;2022-12-29T06:27:05;92859.00;;;-0.10
7882;BMP180;3986;41.884;23.466;2022-12-29T06:29:32;92864.00;;;0.10
7882;BMP180;3986;41.884;23.466;2022-12-29T06:32:01;92854.00;;;0.20
7882;BMP180;3986;41.884;23.466;2022-12-29T06:34:28;92855.00;;;0.30
7882;BMP180;3986;41.884;23.466;2022-12-29T06:36:55;92844.00;;;0.10
7882;BMP180;3986;41.884;23.466;2022-12-29T06:39:22;92851.00;;;0.50
7882;BMP180;3986;41.884;23.466;2022-12-29T06:41:51;92853.00;;;0.40
7882;BMP180;3986;41.884;23.466;2022-12-29T06:44:18;92862.00;;;0.40
7882;BMP180;3986;41.884;23.466;2022-12-29T06:46:45;92863.00;;;0.80
7882;BMP180;3986;41.884;23.466;2022-12-29T06:49:12;92868.00;;;0.90
7882;BMP180;3986;41.884;23.466;2022-12-29T06:51:39;92868.00;;;1.00
7882;BMP180;3986;41.884;23.466;2022-12-29T06:54:06;92870.00;;;1.00
7882;BMP180;3986;41.884;23.466;2022-12-29T06:56:32;92865.00;;;0.60
7882;BMP180;3986;41.884;23.466;2022-12-29T06:59:01;92869.00;;;0.70
7882;BMP180;3986;41.884;23.466;2022-12-29T07:01:27;92869.00;;;0.90
7882;BMP180;3986;41.884;23.466;2022-12-29T07:03:54;92863.00;;;1.20
7882;BMP180;3986;41.884;23.466;2022-12-29T07:06:21;92880.00;;;1.30
7882;BMP180;3986;41.884;23.466;2022-12-29T07:08:48;92876.00;;;1.30
7882;BMP180;3986;41.884;23.466;2022-12-29T07:11:15;92875.00;;;1.10
7882;BMP180;3986;41.884;23.466;2022-12-29T07:13:41;92756.00;;;0.30
7882;BMP180;3986;41.884;23.466;2022-12-29T07:16:10;92871.00;;;0.60
7882;BMP180;3986;41.884;23.466;2022-12-29T07:18:37;92874.00;;;0.70
7882;BMP180;3986;41.884;23.466;2022-12-29T07:21:04;92876.00;;;0.90
7882;BMP180;3986;41.884;23.466;2022-12-29T07:23:31;92885.00;;;1.00
7882;BMP180;3986;41.884;23.466;2022-12-29T07:26:01;92884.00;;;1.30
7882;BMP180;3986;41.884;23.466;2022-12-29T07:28:28;92876.00;;;1.10
7882;BMP180;3986;41.884;23.466;2022-12-29T07:30:55;92882.00;;;1.20
7882;BMP180;3986;41.884;23.466;2022-12-29T07:33:23;92884.00;;;1.30
7882;BMP180;3986;41.884;23.466;2022-12-29T07:35:50;92881.00;;;1.10
7882;BMP180;3986;41.884;23.466;2022-12-29T07:38:17;92891.00;;;1.30
7882;BMP180;3986;41.884;23.466;2022-12-29T07:40:44;92891.00;;;1.20
7882;BMP180;3986;41.884;23.466;2022-12-29T07:43:11;92878.00;;;1.60
7882;BMP180;3986;41.884;23.466;2022-12-29T07:45:37;92886.00;;;1.80
7882;BMP180;3986;41.884;23.466;2022-12-29T07:48:05;92888.00;;;1.50
7882;BMP180;3986;41.884;23.466;2022-12-29T07:50:34;92907.00;;;1.30
7882;BMP180;3986;41.884;23.466;2022-12-29T07:53:01;92889.00;;;1.10
7882;BMP180;3986;41.884;23.466;2022-12-29T07:55:28;92898.00;;;1.30
7882;BMP180;3986;41.884;23.466;2022-12-29T07:57:55;92891.00;;;1.80
7882;BMP180;3986;41.884;23.466;2022-12-29T08:00:22;92887.00;;;2.20
7882;BMP180;3986;41.884;23.466;2022-12-29T08:02:49;92900.00;;;2.40
7882;BMP180;3986;41.884;23.466;2022-12-29T08:05:16;92895.00;;;2.70
7882;BMP180;3986;41.884;23.466;2022-12-29T08:07:45;92898.00;;;2.40
7882;BMP180;3986;41.884;23.466;2022-12-29T08:10:13;92885.00;;;2.60
7882;BMP180;3986;41.884;23.466;2022-12-29T08:12:41;92895.00;;;2.00
7882;BMP180;3986;41.884;23.466;2022-12-29T08:15:09;92905.00;;;1.90
7882;BMP180;3986;41.884;23.466;2022-12-29T08:17:36;92907.00;;;2.10
7882;BMP180;3986;41.884;23.466;2022-12-29T08:20:04;92903.00;;;2.70
7882;BMP180;3986;41.884;23.466;2022-12-29T08:22:31;92891.00;;;2.90
7882;BMP180;3986;41.884;23.466;2022-12-29T08:24:59;92885.00;;;3.50
7882;BMP180;3986;41.884;23.466;2022-12-29T08:27:26;92900.00;;;3.90
7882;BMP180;3986;41.884;23.466;2022-12-29T08:29:53;92897.00;;;4.30
7882;BMP180;3986;41.884;23.466;2022-12-29T08:32:19;92882.00;;;5.20
7882;BMP180;3986;41.884;23.466;2022-12-29T08:34:46;92887.00;;;3.40
7882;BMP180;3986;41.884;23.466;2022-12-29T08:37:13;92887.00;;;3.60
7882;BMP180;3986;41.884;23.466;2022-12-29T08:39:40;92897.00;;;4.60
7882;BMP180;3986;41.884;23.466;2022-12-29T08:42:08;92895.00;;;5.70
7882;BMP180;3986;41.884;23.466;2022-12-29T08:44:35;92891.00;;;5.90
7882;BMP180;3986;41.884;23.466;2022-12-29T08:47:02;92885.00;;;6.10
7882;BMP180;3986;41.884;23.466;2022-12-29T08:49:28;92888.00;;;6.40
7882;BMP180;3986;41.884;23.466;2022-12-29T08:51:55;92876.00;;;6.70
7882;BMP180;3986;41.884;23.466;2022-12-29T08:54:22;92870.00;;;7.10
7882;BMP180;3986;41.884;23.466;2022-12-29T08:56:49;92876.00;;;6.60
7882;BMP180;3986;41.884;23.466;2022-12-29T08:59:17;92859.00;;;6.50
7882;BMP180;3986;41.884;23.466;2022-12-29T09:01:44;92872.00;;;6.70
7882;BMP180;3986;41.884;23.466;2022-12-29T09:04:10;92867.00;;;6.80
7882;BMP180;3986;41.884;23.466;2022-12-29T09:06:37;92869.00;;;6.80
7882;BMP180;3986;41.884;23.466;2022-12-29T09:09:04;92865.00;;;6.70
7882;BMP180;3986;41.884;23.466;2022-12-29T09:11:31;92881.00;;;6.60
7882;BMP180;3986;41.884;23.466;2022-12-29T09:13:58;92866.00;;;6.10
7882;BMP180;3986;41.884;23.466;2022-12-29T09:16:26;92853.00;;;6.50
7882;BMP180;3986;41.884;23.466;2022-12-29T09:18:53;92855.00;;;6.70
7882;BMP180;3986;41.884;23.466;2022-12-29T09:21:20;92863.00;;;6.70
7882;BMP180;3986;41.884;23.466;2022-12-29T09:23:47;92849.00;;;6.70
7882;BMP180;3986;41.884;23.466;2022-12-29T09:26:14;92856.00;;;7.10
7882;BMP180;3986;41.884;23.466;2022-12-29T09:28:41;92848.00;;;10.80
7882;BMP180;3986;41.884;23.466;2022-12-29T09:31:09;92843.00;;;11.80
7882;BMP180;3986;41.884;23.466;2022-12-29T09:33:38;92846.00;;;12.20
7882;BMP180;3986;41.884;23.466;2022-12-29T09:36:05;92844.00;;;11.90
7882;BMP180;3986;41.884;23.466;2022-12-29T09:38:32;92853.00;;;11.00
7882;BMP180;3986;41.884;23.466;2022-12-29T09:41:01;92838.00;;;11.30
7882;BMP180;3986;41.884;23.466;2022-12-29T09:43:53;92834.00;;;11.90
7882;BMP180;3986;41.884;23.466;2022-12-29T09:46:25;92835.00;;;15.10
7882;BMP180;3986;41.884;23.466;2022-12-29T09:49:01;92798.00;;;17.20
7882;BMP180;3986;41.884;23.466;2022-12-29T09:51:33;92829.00;;;19.80
7882;BMP180;3986;41.884;23.466;2022-12-29T09:54:12;92820.00;;;21.80
7882;BMP180;3986;41.884;23.466;2022-12-29T09:56:45;92810.00;;;22.10
7882;BMP180;3986;41.884;23.466;2022-12-29T09:59:15;92819.00;;;23.90
7882;BMP180;3986;41.884;23.466;2022-12-29T10:01:49;92810.00;;;24.50
7882;BMP180;3986;41.884;23.466;2022-12-29T10:04:19;92816.00;;;23.90
7882;BMP180;3986;41.884;23.466;2022-12-29T10:06:51;92812.00;;;25.30
7882;BMP180;3986;41.884;23.466;2022-12-29T10:09:26;92744.00;;;25.30
7882;BMP180;3986;41.884;23.466;2022-12-29T10:12:06;92807.00;;;24.90
7882;BMP180;3986;41.884;23.466;2022-12-29T10:14:51;92817.00;;;25.00
7882;BMP180;3986;41.884;23.466;2022-12-29T10:17:27;92814.00;;;25.90
7882;BMP180;3986;41.884;23.466;2022-12-29T10:23:04;92801.00;;;25.70
7882;BMP180;3986;41.884;23.466;2022-12-29T10:25:37;92802.00;;;24.40
7882;BMP180;3986;41.884;23.466;2022-12-29T10:28:10;92796.00;;;23.40
7882;BMP180;3986;41.884;23.466;2022-12-29T10:30:43;92801.00;;;25.80
7882;BMP180;3986;41.884;23.466;2022-12-29T10:33:15;92798.00;;;26.80
7882;BMP180;3986;41.884;23.466;2022-12-29T10:35:46;92795.00;;;26.70
7882;BMP180;3986;41.884;23.466;2022-12-29T10:38:19;92797.00;;;26.60
7882;BMP180;3986;41.884;23.466;2022-12-29T10:40:52;92793.00;;;27.80
7882;BMP180;3986;41.884;23.466;2022-12-29T10:43:24;92795.00;;;27.10
7882;BMP180;3986;41.884;23.466;2022-12-29T10:45:52;92795.00;;;26.70
7882;BMP180;3986;41.884;23.466;2022-12-29T10:48:21;92785.00;;;27.40
7882;BMP180;3986;41.884;23.466;2022-12-29T10:50:50;92791.00;;;28.60
7882;BMP180;3986;41.884;23.466;2022-12-29T10:53:23;92788.00;;;28.90
7882;BMP180;3986;41.884;23.466;2022-12-29T10:55:52;92781.00;;;29.10
7882;BMP180;3986;41.884;23.466;2022-12-29T10:58:20;92796.00;;;28.40
7882;BMP180;3986;41.884;23.466;2022-12-29T11:00:50;92777.00;;;28.20
7882;BMP180;3986;41.884;23.466;2022-12-29T11:03:50;92778.00;;;29.00
7882;BMP180;3986;41.884;23.466;2022-12-29T11:06:27;92776.00;;;29.60
7882;BMP180;3986;41.884;23.466;2022-12-29T11:08:57;92782.00;;;30.10
7882;BMP180;3986;41.884;23.466;2022-12-29T11:11:27;92766.00;;;25.30
7882;BMP180;3986;41.884;23.466;2022-12-29T11:14:02;92785.00;;;26.50
7882;BMP180;3986;41.884;23.466;2022-12-29T11:16:31;92761.00;;;29.40
7882;BMP180;3986;41.884;23.466;2022-12-29T11:18:59;92768.00;;;28.70
7882;BMP180;3986;41.884;23.466;2022-12-29T11:21:32;92763.00;;;28.30
7882;BMP180;3986;41.884;23.466;2022-12-29T11:24:01;92759.00;;;29.00
7882;BMP180;3986;41.884;23.466;2022-12-29T11:26:28;92753.00;;;27.60
7882;BMP180;3986;41.884;23.466;2022-12-29T11:29:27;92759.00;;;29.80
7882;BMP180;3986;41.884;23.466;2022-12-29T11:31:55;92753.00;;;29.90
7882;BMP180;3986;41.884;23.466;2022-12-29T11:34:25;92664.00;;;30.60
7882;BMP180;3986;41.884;23.466;2022-12-29T11:36:59;92759.00;;;28.10
7882;BMP180;3986;41.884;23.466;2022-12-29T11:39:33;92761.00;;;29.60
7882;BMP180;3986;41.884;23.466;2022-12-29T11:42:01;92749.00;;;28.70
7882;BMP180;3986;41.884;23.466;2022-12-29T11:44:36;92744.00;;;29.40
7882;BMP180;3986;41.884;23.466;2022-12-29T11:47:19;92740.00;;;29.90
7882;BMP180;3986;41.884;23.466;2022-12-29T11:49:49;92744.00;;;30.20
7882;BMP180;3986;41.884;23.466;2022-12-29T11:52:21;92730.00;;;30.30
7882;BMP180;3986;41.884;23.466;2022-12-29T11:54:49;92732.00;;;28.50
7882;BMP180;3986;41.884;23.466;2022-12-29T11:57:17;92720.00;;;28.40
7882;BMP180;3986;41.884;23.466;2022-12-29T11:59:49;92721.00;;;28.80
7882;BMP180;3986;41.884;23.466;2022-12-29T12:02:26;92718.00;;;28.10
7882;BMP180;3986;41.884;23.466;2022-12-29T12:05:01;92723.00;;;29.60
7882;BMP180;3986;41.884;23.466;2022-12-29T12:07:38;92716.00;;;30.40
7882;BMP180;3986;41.884;23.466;2022-12-29T12:10:13;92709.00;;;27.90
7882;BMP180;3986;41.884;23.466;2022-12-29T12:12:47;92712.00;;;27.80
7882;BMP180;3986;41.884;23.466;2022-12-29T12:15:17;92714.00;;;29.10
7882;BMP180;3986;41.884;23.466;2022-12-29T12:17:51;92720.00;;;29.30
7882;BMP180;3986;41.884;23.466;2022-12-29T12:20:21;92704.00;;;29.90
7882;BMP180;3986;41.884;23.466;2022-12-29T12:22:58;92696.00;;;29.10
7882;BMP180;3986;41.884;23.466;2022-12-29T12:25:30;92692.00;;;29.80
7882;BMP180;3986;41.884;23.466;2022-12-29T12:28:04;92688.00;;;29.60
7882;BMP180;3986;41.884;23.466;2022-12-29T12:30:38;92706.00;;;29.60
7882;BMP180;3986;41.884;23.466;2022-12-29T12:33:15;92660.00;;;28.20
7882;BMP180;3986;41.884;23.466;2022-12-29T12:35:49;92681.00;;;29.80
7882;BMP180;3986;41.884;23.466;2022-12-29T12:38:26;92683.00;;;29.90
7882;BMP180;3986;41.884;23.466;2022-12-29T12:41:00;92677.00;;;30.00
7882;BMP180;3986;41.884;23.466;2022-12-29T12:43:40;92656.00;;;26.20
7882;BMP180;3986;41.884;23.466;2022-12-29T12:46:19;92671.00;;;21.90
7882;BMP180;3986;41.884;23.466;2022-12-29T12:49:06;92668.00;;;26.80
7882;BMP180;3986;41.884;23.466;2022-12-29T12:51:42;92674.00;;;27.20
7882;BMP180;3986;41.884;23.466;2022-12-29T12:54:23;92681.00;;;27.30
7882;BMP180;3986;41.884;23.466;2022-12-29T12:57:03;92670.00;;;24.60
7882;BMP180;3986;41.884;23.466;2022-12-29T12:59:42;92683.00;;;27.40
7882;BMP180;3986;41.884;23.466;2022-12-29T13:02:31;92695.00;;;28.20
7882;BMP180;3986;41.884;23.466;2022-12-29T13:05:20;92683.00;;;28.10
7882;BMP180;3986;41.884;23.466;2022-12-29T13:07:58;92693.00;;;27.30
7882;BMP180;3986;41.884;23.466;2022-12-29T13:10:41;92596.00;;;24.90
7882;BMP180;3986;41.884;23.466;2022-12-29T13:13:28;92653.00;;;20.40
7882;BMP180;3986;41.884;23.466;2022-12-29T13:16:05;92673.00;;;20.60
7882;BMP180;3986;41.884;23.466;2022-12-29T13:18:41;92678.00;;;21.40
7882;BMP180;3986;41.884;23.466;2022-12-29T13:21:19;92672.00;;;21.80
7882;BMP180;3986;41.884;23.466;2022-12-29T13:23:54;92678.00;;;22.20
7882;BMP180;3986;41.884;23.466;2022-12-29T13:26:29;92681.00;;;25.10
7882;BMP180;3986;41.884;23.466;2022-12-29T13:29:03;92677.00;;;20.60
7882;BMP180;3986;41.884;23.466;2022-12-29T13:31:35;92689.00;;;24.60
7882;BMP180;3986;41.884;23.466;2022-12-29T13:34:16;92692.00;;;25.60
7882;BMP180;3986;41.884;23.466;2022-12-29T13:36:52;92676.00;;;20.80
7882;BMP180;3986;41.884;23.466;2022-12-29T13:39:24;92673.00;;;23.50
7882;BMP180;3986;41.884;23.466;2022-12-29T13:41:54;92679.00;;;23.10
7882;BMP180;3986;41.884;23.466;2022-12-29T13:44:23;92676.00;;;20.70
7882;BMP180;3986;41.884;23.466;2022-12-29T13:46:51;92691.00;;;19.00
7882;BMP180;3986;41.884;23.466;2022-12-29T13:49:20;92674.00;;;18.20
7882;BMP180;3986;41.884;23.466;2022-12-29T13:51:51;92686.00;;;18.70
7882;BMP180;3986;41.884;23.466;2022-12-29T13:54:27;92684.00;;;17.60
7882;BMP180;3986;41.884;23.466;2022-12-29T13:57:06;92694.00;;;13.50
7882;BMP180;3986;41.884;23.466;2022-12-29T13:59:40;92677.00;;;13.50
7882;BMP180;3986;41.884;23.466;2022-12-29T14:02:21;92681.00;;;14.30
7882;BMP180;3986;41.884;23.466;2022-12-29T14:05:01;92697.00;;;15.80
7882;BMP180;3986;41.884;23.466;2022-12-29T14:07:36;92668.00;;;14.80
7882;BMP180;3986;41.884;23.466;2022-12-29T14:10:04;92683.00;;;13.20
7882;BMP180;3986;41.884;23.466;2022-12-29T14:12:36;92678.00;;;13.10
7882;BMP180;3986;41.884;23.466;2022-12-29T14:15:13;92689.00;;;12.30
7882;BMP180;3986;41.884;23.466;2022-12-29T14:17:41;92683.00;;;12.00
7882;BMP180;3986;41.884;23.466;2022-12-29T14:20:18;92687.00;;;11.50
7882;BMP180;3986;41.884;23.466;2022-12-29T14:22:56;92692.00;;;11.10
7882;BMP180;3986;41.884;23.466;2022-12-29T14:25:52;92686.00;;;10.50
7882;BMP180;3986;41.884;23.466;2022-12-29T14:28:26;92689.00;;;10.60
7882;BMP180;3986;41.884;23.466;2022-12-29T14:30:55;92692.00;;;10.10
7882;BMP180;3986;41.884;23.466;2022-12-29T14:33:23;92718.00;;;10.00
7882;BMP180;3986;41.884;23.466;2022-12-29T14:35:52;92718.00;;;9.80
7882;BMP180;3986;41.884;23.466;2022-12-29T14:38:28;92700.00;;;9.70
7882;BMP180;3986;41.884;23.466;2022-12-29T14:41:18;92697.00;;;9.20
7882;BMP180;3986;41.884;23.466;2022-12-29T14:43:57;92699.00;;;9.10
7882;BMP180;3986;41.884;23.466;2022-12-29T14:46:25;92698.00;;;9.10
7882;BMP180;3986;41.884;23.466;2022-12-29T14:49:15;92702.00;;;9.00
7882;BMP180;3986;41.884;23.466;2022-12-29T14:51:43;92736.00;;;9.10
7882;BMP180;3986;41.884;23.466;2022-12-29T14:54:43;92707.00;;;8.80